TimeCDT,TemperatureF,Dew PointF,Humidity,Sea Level PressureIn,VisibilityMPH,Wind Direction,Wind SpeedMPH,Gust SpeedMPH,PrecipitationIn,Events,Conditions,WindDirDegrees,DateUTC
12:54 AM,43.0,36.0,76,30.01,9.0,Calm,Calm,-,N/A,,Clear,0,2012-11-01 05:54:00
1:54 AM,42.1,35.1,76,30.01,9.0,Calm,Calm,-,N/A,,Clear,0,2012-11-01 06:54:00
2:54 AM,42.1,36.0,79,30.01,9.0,Calm,Calm,-,N/A,,Clear,0,2012-11-01 07:54:00
3:54 AM,41.0,35.1,79,30.00,9.0,Calm,Calm,-,N/A,,Clear,0,2012-11-01 08:54:00
4:54 AM,43.0,36.0,76,29.99,9.0,Calm,Calm,-,N/A,,Clear,0,2012-11-01 09:54:00
5:54 AM,42.1,35.1,76,30.00,9.0,Calm,Calm,-,N/A,,Clear,0,2012-11-01 10:54:00
6:54 AM,42.8,35.6,76,29.99,9.0,Calm,Calm,-,N/A,,Clear,0,2012-11-01 11:54:00
7:54 AM,42.8,35.6,76,29.99,4.0,Calm,Calm,-,N/A,,Haze,0,2012-11-01 12:54:00
8:54 AM,45.0,39.0,80,30.01,5.0,Calm,Calm,-,N/A,,Haze,0,2012-11-01 13:54:00
9:54 AM,51.8,37.4,58,30.00,10.0,South,3.5,-,N/A,,Clear,190,2012-11-01 14:54:00
10:54 AM,59.0,39.0,48,29.98,9.0,SSW,5.8,-,N/A,,Clear,210,2012-11-01 15:54:00
11:54 AM,64.9,37.9,37,29.96,10.0,WSW,10.4,-,N/A,,Clear,240,2012-11-01 16:54:00
12:54 PM,70.0,39.0,32,29.92,10.0,WSW,6.9,-,N/A,,Clear,250,2012-11-01 17:54:00
1:54 PM,73.9,39.9,29,29.88,10.0,West,12.7,18.4,N/A,,Clear,260,2012-11-01 18:54:00
2:54 PM,75.2,39.2,27,29.87,10.0,West,11.5,19.6,N/A,,Clear,260,2012-11-01 19:54:00
3:54 PM,73.9,39.9,29,29.87,10.0,NW,15.0,20.7,N/A,,Clear,320,2012-11-01 20:54:00
4:54 PM,69.1,41.0,36,29.88,10.0,NW,12.7,-,N/A,,Clear,320,2012-11-01 21:54:00
5:54 PM,66.0,41.0,40,29.90,10.0,NNW,8.1,-,N/A,,Clear,340,2012-11-01 22:54:00
6:54 PM,61.0,41.0,48,29.92,10.0,Calm,Calm,-,N/A,,Clear,0,2012-11-01 23:54:00
7:54 PM,59.0,41.0,51,29.93,10.0,Calm,Calm,-,N/A,,Clear,0,2012-11-02 00:54:00
8:54 PM,52.0,42.1,69,29.94,10.0,Calm,Calm,-,N/A,,Clear,0,2012-11-02 01:54:00
9:54 PM,53.1,41.0,64,29.94,10.0,Calm,Calm,-,N/A,,Clear,0,2012-11-02 02:54:00
10:54 PM,53.1,41.0,64,29.95,10.0,Calm,Calm,-,N/A,,Clear,0,2012-11-02 03:54:00
11:54 PM,53.1,41.0,64,29.95,10.0,NNE,3.5,-,N/A,,Clear,20,2012-11-02 04:54:00